sensor_id;sensor_type;location;lat;lon;timestamp;P1;durP1;ratioP1;P2;durP2;ratioP2
56269;SDS011;42176;43.240;27.880;2023-08-31T00:01:06;15.85;;;9.98;;
56269;SDS011;42176;43.240;27.880;2023-08-31T00:03:06;13.07;;;8.82;;
56269;SDS011;42176;43.240;27.880;2023-08-31T00:05:07;13.30;;;9.23;;
56269;SDS011;42176;43.240;27.880;2023-08-31T00:07:08;14.30;;;9.15;;
56269;SDS011;42176;43.240;27.880;2023-08-31T00:09:08;15.65;;;9.02;;
56269;SDS011;42176;43.240;27.880;2023-08-31T00:11:09;15.80;;;8.73;;
56269;SDS011;42176;43.240;27.880;2023-08-31T00:13:09;12.60;;;9.27;;
56269;SDS011;42176;43.240;27.880;2023-08-31T00:15:10;14.43;;;8.93;;
56269;SDS011;42176;43.240;27.880;2023-08-31T00:17:11;12.02;;;8.43;;
56269;SDS011;42176;43.240;27.880;2023-08-31T00:19:12;9.40;;;8.13;;
56269;SDS011;42176;43.240;27.880;2023-08-31T00:21:14;24.05;;;19.23;;
56269;SDS011;42176;43.240;27.880;2023-08-31T00:23:15;46.30;;;35.47;;
56269;SDS011;42176;43.240;27.880;2023-08-31T00:25:15;69.35;;;47.13;;
56269;SDS011;42176;43.240;27.880;2023-08-31T00:27:16;50.97;;;37.05;;
56269;SDS011;42176;43.240;27.880;2023-08-31T00:31:18;25.80;;;17.53;;
56269;SDS011;42176;43.240;27.880;2023-08-31T00:33:18;28.83;;;19.35;;
56269;SDS011;42176;43.240;27.880;2023-08-31T00:35:19;21.20;;;13.70;;
56269;SDS011;42176;43.240;27.880;2023-08-31T00:37:19;20.13;;;15.20;;
56269;SDS011;42176;43.240;27.880;2023-08-31T00:39:21;32.30;;;17.30;;
56269;SDS011;42176;43.240;27.880;2023-08-31T00:41:22;23.03;;;13.47;;
56269;SDS011;42176;43.240;27.880;2023-08-31T00:43:23;18.88;;;13.25;;
56269;SDS011;42176;43.240;27.880;2023-08-31T00:45:23;24.75;;;12.65;;
56269;SDS011;42176;43.240;27.880;2023-08-31T00:47:25;28.10;;;12.43;;
56269;SDS011;42176;43.240;27.880;2023-08-31T00:51:27;25.20;;;12.10;;
56269;SDS011;42176;43.240;27.880;2023-08-31T00:53:27;20.40;;;11.02;;
56269;SDS011;42176;43.240;27.880;2023-08-31T00:55:30;19.10;;;11.27;;
56269;SDS011;42176;43.240;27.880;2023-08-31T00:57:31;24.80;;;12.00;;
56269;SDS011;42176;43.240;27.880;2023-08-31T00:59:32;16.47;;;11.13;;
56269;SDS011;42176;43.240;27.880;2023-08-31T01:02:16;18.93;;;11.73;;
56269;SDS011;42176;43.240;27.880;2023-08-31T01:04:41;16.35;;;10.30;;
56269;SDS011;42176;43.240;27.880;2023-08-31T01:07:07;15.18;;;11.13;;
56269;SDS011;42176;43.240;27.880;2023-08-31T01:11:31;17.40;;;10.07;;
56269;SDS011;42176;43.240;27.880;2023-08-31T01:13:44;15.70;;;11.75;;
56269;SDS011;42176;43.240;27.880;2023-08-31T01:15:52;16.85;;;10.23;;
56269;SDS011;42176;43.240;27.880;2023-08-31T01:17:54;13.82;;;9.68;;
56269;SDS011;42176;43.240;27.880;2023-08-31T01:19:58;14.05;;;10.65;;
56269;SDS011;42176;43.240;27.880;2023-08-31T01:22:02;18.02;;;9.77;;
56269;SDS011;42176;43.240;27.880;2023-08-31T01:24:05;18.83;;;10.50;;
56269;SDS011;42176;43.240;27.880;2023-08-31T01:26:07;20.10;;;11.23;;
56269;SDS011;42176;43.240;27.880;2023-08-31T01:28:08;16.10;;;11.10;;
56269;SDS011;42176;43.240;27.880;2023-08-31T01:30:10;13.90;;;9.48;;
56269;SDS011;42176;43.240;27.880;2023-08-31T01:32:10;18.73;;;10.85;;
56269;SDS011;42176;43.240;27.880;2023-08-31T01:34:11;16.13;;;9.63;;
56269;SDS011;42176;43.240;27.880;2023-08-31T01:36:13;17.80;;;11.03;;
56269;SDS011;42176;43.240;27.880;2023-08-31T01:38:25;13.85;;;9.63;;
56269;SDS011;42176;43.240;27.880;2023-08-31T01:40:35;15.57;;;9.57;;
56269;SDS011;42176;43.240;27.880;2023-08-31T01:42:54;16.38;;;10.13;;
56269;SDS011;42176;43.240;27.880;2023-08-31T01:47:04;11.15;;;8.23;;
56269;SDS011;42176;43.240;27.880;2023-08-31T01:49:06;10.30;;;9.20;;
56269;SDS011;42176;43.240;27.880;2023-08-31T01:51:07;11.52;;;9.13;;
56269;SDS011;42176;43.240;27.880;2023-08-31T01:53:09;11.02;;;8.75;;
56269;SDS011;42176;43.240;27.880;2023-08-31T01:55:09;9.70;;;8.60;;
56269;SDS011;42176;43.240;27.880;2023-08-31T01:57:10;11.98;;;9.20;;
56269;SDS011;42176;43.240;27.880;2023-08-31T01:59:11;21.50;;;10.07;;
56269;SDS011;42176;43.240;27.880;2023-08-31T02:01:11;12.53;;;9.17;;
56269;SDS011;42176;43.240;27.880;2023-08-31T02:03:11;11.50;;;9.45;;
56269;SDS011;42176;43.240;27.880;2023-08-31T02:05:12;14.43;;;9.63;;
56269;SDS011;42176;43.240;27.880;2023-08-31T02:07:13;13.77;;;10.40;;
56269;SDS011;42176;43.240;27.880;2023-08-31T02:09:14;14.20;;;10.07;;
56269;SDS011;42176;43.240;27.880;2023-08-31T02:11:14;12.77;;;10.32;;
56269;SDS011;42176;43.240;27.880;2023-08-31T02:13:15;16.37;;;11.47;;
56269;SDS011;42176;43.240;27.880;2023-08-31T02:15:16;19.40;;;11.40;;
56269;SDS011;42176;43.240;27.880;2023-08-31T02:17:16;13.97;;;11.17;;
56269;SDS011;42176;43.240;27.880;2023-08-31T02:19:17;16.50;;;11.05;;
56269;SDS011;42176;43.240;27.880;2023-08-31T02:21:17;17.50;;;11.50;;
56269;SDS011;42176;43.240;27.880;2023-08-31T02:23:18;20.75;;;11.00;;
56269;SDS011;42176;43.240;27.880;2023-08-31T02:25:18;12.97;;;10.53;;
56269;SDS011;42176;43.240;27.880;2023-08-31T02:27:19;16.25;;;10.70;;
56269;SDS011;42176;43.240;27.880;2023-08-31T02:29:19;16.60;;;10.03;;
56269;SDS011;42176;43.240;27.880;2023-08-31T02:31:20;16.67;;;10.63;;
56269;SDS011;42176;43.240;27.880;2023-08-31T02:33:20;13.07;;;10.47;;
56269;SDS011;42176;43.240;27.880;2023-08-31T02:35:21;12.90;;;10.87;;
56269;SDS011;42176;43.240;27.880;2023-08-31T02:37:21;14.55;;;10.70;;
56269;SDS011;42176;43.240;27.880;2023-08-31T02:39:22;15.05;;;11.02;;
56269;SDS011;42176;43.240;27.880;2023-08-31T02:41:23;12.25;;;10.35;;
56269;SDS011;42176;43.240;27.880;2023-08-31T02:43:23;14.73;;;10.43;;
56269;SDS011;42176;43.240;27.880;2023-08-31T02:45:25;13.35;;;11.13;;
56269;SDS011;42176;43.240;27.880;2023-08-31T02:47:25;14.63;;;9.57;;
56269;SDS011;42176;43.240;27.880;2023-08-31T02:49:26;18.08;;;10.70;;
56269;SDS011;42176;43.240;27.880;2023-08-31T02:51:26;16.33;;;10.00;;
56269;SDS011;42176;43.240;27.880;2023-08-31T02:53:27;13.57;;;11.02;;
56269;SDS011;42176;43.240;27.880;2023-08-31T02:55:28;16.13;;;11.35;;
56269;SDS011;42176;43.240;27.880;2023-08-31T02:57:28;19.20;;;12.07;;
56269;SDS011;42176;43.240;27.880;2023-08-31T02:59:28;15.83;;;12.10;;
56269;SDS011;42176;43.240;27.880;2023-08-31T03:01:29;24.87;;;17.67;;
56269;SDS011;42176;43.240;27.880;2023-08-31T03:03:29;27.27;;;18.45;;
56269;SDS011;42176;43.240;27.880;2023-08-31T03:05:30;31.00;;;17.77;;
56269;SDS011;42176;43.240;27.880;2023-08-31T03:07:30;30.92;;;18.33;;
56269;SDS011;42176;43.240;27.880;2023-08-31T03:09:31;35.17;;;18.35;;
56269;SDS011;42176;43.240;27.880;2023-08-31T03:11:31;28.43;;;17.80;;
56269;SDS011;42176;43.240;27.880;2023-08-31T03:13:32;26.17;;;18.70;;
56269;SDS011;42176;43.240;27.880;2023-08-31T03:15:33;24.77;;;17.33;;
56269;SDS011;42176;43.240;27.880;2023-08-31T03:17:36;21.00;;;15.15;;
56269;SDS011;42176;43.240;27.880;2023-08-31T03:19:37;21.45;;;15.82;;
56269;SDS011;42176;43.240;27.880;2023-08-31T03:21:38;16.10;;;12.70;;
56269;SDS011;42176;43.240;27.880;2023-08-31T03:23:38;15.17;;;11.10;;
56269;SDS011;42176;43.240;27.880;2023-08-31T03:25:38;15.90;;;11.60;;
56269;SDS011;42176;43.240;27.880;2023-08-31T03:27:39;19.70;;;11.23;;
56269;SDS011;42176;43.240;27.880;2023-08-31T03:29:39;15.17;;;11.13;;
56269;SDS011;42176;43.240;27.880;2023-08-31T03:31:40;51.42;;;30.05;;
56269;SDS011;42176;43.240;27.880;2023-08-31T03:33:40;68.47;;;36.00;;
56269;SDS011;42176;43.240;27.880;2023-08-31T03:35:41;64.20;;;35.10;;
56269;SDS011;42176;43.240;27.880;2023-08-31T03:37:41;59.03;;;34.17;;
56269;SDS011;42176;43.240;27.880;2023-08-31T03:39:42;61.77;;;33.40;;
56269;SDS011;42176;43.240;27.880;2023-08-31T03:41:43;65.13;;;31.05;;
56269;SDS011;42176;43.240;27.880;2023-08-31T03:43:43;48.13;;;28.20;;
56269;SDS011;42176;43.240;27.880;2023-08-31T03:45:43;48.50;;;28.63;;
56269;SDS011;42176;43.240;27.880;2023-08-31T03:47:44;54.75;;;30.33;;
56269;SDS011;42176;43.240;27.880;2023-08-31T03:49:44;59.00;;;31.37;;
56269;SDS011;42176;43.240;27.880;2023-08-31T03:51:45;59.92;;;31.55;;
56269;SDS011;42176;43.240;27.880;2023-08-31T03:53:46;50.88;;;30.60;;
56269;SDS011;42176;43.240;27.880;2023-08-31T03:55:46;46.28;;;25.85;;
56269;SDS011;42176;43.240;27.880;2023-08-31T03:57:47;42.00;;;22.98;;
56269;SDS011;42176;43.240;27.880;2023-08-31T03:59:47;39.00;;;21.08;;
56269;SDS011;42176;43.240;27.880;2023-08-31T04:01:48;41.08;;;21.33;;
56269;SDS011;42176;43.240;27.880;2023-08-31T04:03:48;33.27;;;18.93;;
56269;SDS011;42176;43.240;27.880;2023-08-31T04:05:53;31.77;;;19.23;;
56269;SDS011;42176;43.240;27.880;2023-08-31T04:07:56;24.30;;;16.70;;
56269;SDS011;42176;43.240;27.880;2023-08-31T04:09:57;28.23;;;17.17;;
56269;SDS011;42176;43.240;27.880;2023-08-31T04:11:57;28.70;;;15.60;;
56269;SDS011;42176;43.240;27.880;2023-08-31T04:13:58;28.65;;;18.45;;
56269;SDS011;42176;43.240;27.880;2023-08-31T04:15:58;31.63;;;18.00;;
56269;SDS011;42176;43.240;27.880;2023-08-31T04:17:58;21.33;;;14.20;;
56269;SDS011;42176;43.240;27.880;2023-08-31T04:19:59;18.77;;;13.30;;
56269;SDS011;42176;43.240;27.880;2023-08-31T04:21:59;24.88;;;13.82;;
56269;SDS011;42176;43.240;27.880;2023-08-31T04:24:00;22.30;;;13.68;;
56269;SDS011;42176;43.240;27.880;2023-08-31T04:26:05;22.02;;;13.75;;
56269;SDS011;42176;43.240;27.880;2023-08-31T04:28:10;22.27;;;14.27;;
56269;SDS011;42176;43.240;27.880;2023-08-31T04:30:11;26.60;;;13.63;;
56269;SDS011;42176;43.240;27.880;2023-08-31T04:34:12;18.60;;;10.83;;
56269;SDS011;42176;43.240;27.880;2023-08-31T04:36:12;21.45;;;11.02;;
56269;SDS011;42176;43.240;27.880;2023-08-31T04:38:13;19.93;;;11.67;;
56269;SDS011;42176;43.240;27.880;2023-08-31T04:40:13;24.67;;;12.00;;
56269;SDS011;42176;43.240;27.880;2023-08-31T04:42:14;24.23;;;11.03;;
56269;SDS011;42176;43.240;27.880;2023-08-31T04:44:16;21.52;;;11.93;;
56269;SDS011;42176;43.240;27.880;2023-08-31T04:46:17;21.95;;;11.50;;
56269;SDS011;42176;43.240;27.880;2023-08-31T04:48:17;18.43;;;9.70;;
56269;SDS011;42176;43.240;27.880;2023-08-31T04:50:20;17.33;;;9.23;;
56269;SDS011;42176;43.240;27.880;2023-08-31T04:52:21;14.67;;;8.63;;
56269;SDS011;42176;43.240;27.880;2023-08-31T04:54:21;18.67;;;8.17;;
56269;SDS011;42176;43.240;27.880;2023-08-31T04:56:22;19.30;;;9.20;;
56269;SDS011;42176;43.240;27.880;2023-08-31T04:58:23;18.60;;;8.68;;
56269;SDS011;42176;43.240;27.880;2023-08-31T05:00:26;14.37;;;8.40;;
56269;SDS011;42176;43.240;27.880;2023-08-31T05:02:27;16.02;;;8.25;;
56269;SDS011;42176;43.240;27.880;2023-08-31T05:04:28;16.35;;;7.90;;
56269;SDS011;42176;43.240;27.880;2023-08-31T05:06:28;12.10;;;7.15;;
56269;SDS011;42176;43.240;27.880;2023-08-31T05:08:29;19.27;;;8.20;;
56269;SDS011;42176;43.240;27.880;2023-08-31T05:10:29;16.48;;;8.35;;
56269;SDS011;42176;43.240;27.880;2023-08-31T05:12:30;23.88;;;8.07;;
56269;SDS011;42176;43.240;27.880;2023-08-31T05:14:30;19.38;;;9.02;;
56269;SDS011;42176;43.240;27.880;2023-08-31T05:16:31;20.52;;;8.40;;
56269;SDS011;42176;43.240;27.880;2023-08-31T05:18:31;25.97;;;8.30;;
56269;SDS011;42176;43.240;27.880;2023-08-31T05:20:32;15.18;;;8.13;;
56269;SDS011;42176;43.240;27.880;2023-08-31T05:22:32;15.45;;;7.63;;
56269;SDS011;42176;43.240;27.880;2023-08-31T05:24:33;13.15;;;7.38;;
56269;SDS011;42176;43.240;27.880;2023-08-31T05:26:33;16.00;;;7.57;;
56269;SDS011;42176;43.240;27.880;2023-08-31T05:28:34;10.73;;;7.40;;
56269;SDS011;42176;43.240;27.880;2023-08-31T05:30:34;16.50;;;7.87;;
56269;SDS011;42176;43.240;27.880;2023-08-31T05:32:34;17.17;;;7.07;;
56269;SDS011;42176;43.240;27.880;2023-08-31T05:34:35;12.68;;;7.60;;
56269;SDS011;42176;43.240;27.880;2023-08-31T05:36:39;13.35;;;7.13;;
56269;SDS011;42176;43.240;27.880;2023-08-31T05:38:39;14.45;;;7.50;;
56269;SDS011;42176;43.240;27.880;2023-08-31T05:40:40;17.85;;;7.75;;
56269;SDS011;42176;43.240;27.880;2023-08-31T05:42:45;15.55;;;7.10;;
56269;SDS011;42176;43.240;27.880;2023-08-31T05:44:46;8.80;;;7.10;;
56269;SDS011;42176;43.240;27.880;2023-08-31T05:46:46;14.95;;;7.82;;
56269;SDS011;42176;43.240;27.880;2023-08-31T05:48:46;13.20;;;7.30;;
56269;SDS011;42176;43.240;27.880;2023-08-31T05:52:47;18.13;;;7.80;;
56269;SDS011;42176;43.240;27.880;2023-08-31T05:56:48;20.97;;;7.03;;
56269;SDS011;42176;43.240;27.880;2023-08-31T06:00:50;13.82;;;5.88;;
56269;SDS011;42176;43.240;27.880;2023-08-31T06:02:50;13.10;;;7.05;;
56269;SDS011;42176;43.240;27.880;2023-08-31T06:04:51;19.40;;;10.85;;
56269;SDS011;42176;43.240;27.880;2023-08-31T06:06:51;9.30;;;6.18;;
56269;SDS011;42176;43.240;27.880;2023-08-31T06:08:53;11.50;;;6.38;;
56269;SDS011;42176;43.240;27.880;2023-08-31T06:10:54;9.63;;;6.85;;
56269;SDS011;42176;43.240;27.880;2023-08-31T06:12:55;17.33;;;9.38;;
56269;SDS011;42176;43.240;27.880;2023-08-31T06:14:55;12.63;;;6.07;;
56269;SDS011;42176;43.240;27.880;2023-08-31T06:16:56;9.85;;;6.97;;
56269;SDS011;42176;43.240;27.880;2023-08-31T06:18:56;11.20;;;5.43;;
56269;SDS011;42176;43.240;27.880;2023-08-31T06:20:57;9.95;;;6.38;;
56269;SDS011;42176;43.240;27.880;2023-08-31T06:22:57;17.35;;;6.68;;
56269;SDS011;42176;43.240;27.880;2023-08-31T06:24:59;14.10;;;6.32;;
56269;SDS011;42176;43.240;27.880;2023-08-31T06:27:00;8.93;;;6.28;;
56269;SDS011;42176;43.240;27.880;2023-08-31T06:29:00;10.65;;;6.60;;
56269;SDS011;42176;43.240;27.880;2023-08-31T06:31:01;9.57;;;6.45;;
56269;SDS011;42176;43.240;27.880;2023-08-31T06:33:01;7.20;;;5.43;;
56269;SDS011;42176;43.240;27.880;2023-08-31T06:35:02;7.25;;;5.55;;
56269;SDS011;42176;43.240;27.880;2023-08-31T06:37:03;9.85;;;6.30;;
56269;SDS011;42176;43.240;27.880;2023-08-31T06:39:03;9.60;;;7.55;;
56269;SDS011;42176;43.240;27.880;2023-08-31T06:41:05;12.13;;;8.25;;
56269;SDS011;42176;43.240;27.880;2023-08-31T06:43:06;13.38;;;7.97;;
56269;SDS011;42176;43.240;27.880;2023-08-31T06:45:08;10.85;;;7.25;;
56269;SDS011;42176;43.240;27.880;2023-08-31T06:47:09;10.43;;;7.55;;
56269;SDS011;42176;43.240;27.880;2023-08-31T06:49:10;10.90;;;6.75;;
56269;SDS011;42176;43.240;27.880;2023-08-31T06:51:11;7.47;;;6.30;;
56269;SDS011;42176;43.240;27.880;2023-08-31T06:53:12;9.25;;;6.90;;
56269;SDS011;42176;43.240;27.880;2023-08-31T06:55:12;8.68;;;6.50;;
56269;SDS011;42176;43.240;27.880;2023-08-31T06:57:12;7.55;;;5.70;;
56269;SDS011;42176;43.240;27.880;2023-08-31T06:59:13;22.48;;;7.32;;
56269;SDS011;42176;43.240;27.880;2023-08-31T07:01:13;8.63;;;5.65;;
56269;SDS011;42176;43.240;27.880;2023-08-31T07:03:14;10.90;;;6.72;;
56269;SDS011;42176;43.240;27.880;2023-08-31T07:05:14;10.73;;;6.88;;
56269;SDS011;42176;43.240;27.880;2023-08-31T07:07:15;9.68;;;6.72;;
56269;SDS011;42176;43.240;27.880;2023-08-31T07:09:15;10.07;;;6.60;;
56269;SDS011;42176;43.240;27.880;2023-08-31T07:11:16;13.35;;;6.93;;
56269;SDS011;42176;43.240;27.880;2023-08-31T07:13:17;6.93;;;6.22;;
56269;SDS011;42176;43.240;27.880;2023-08-31T07:15:18;8.82;;;6.78;;
56269;SDS011;42176;43.240;27.880;2023-08-31T07:17:18;13.88;;;6.40;;
56269;SDS011;42176;43.240;27.880;2023-08-31T07:19:19;11.00;;;6.05;;
56269;SDS011;42176;43.240;27.880;2023-08-31T07:21:19;9.95;;;6.82;;
56269;SDS011;42176;43.240;27.880;2023-08-31T07:23:20;15.88;;;8.13;;
56269;SDS011;42176;43.240;27.880;2023-08-31T07:25:21;9.63;;;6.50;;
56269;SDS011;42176;43.240;27.880;2023-08-31T07:27:21;16.83;;;6.60;;
56269;SDS011;42176;43.240;27.880;2023-08-31T07:29:21;7.40;;;6.00;;
56269;SDS011;42176;43.240;27.880;2023-08-31T07:31:22;11.73;;;6.78;;
56269;SDS011;42176;43.240;27.880;2023-08-31T07:33:23;6.25;;;5.65;;
56269;SDS011;42176;43.240;27.880;2023-08-31T07:35:23;7.82;;;6.13;;
56269;SDS011;42176;43.240;27.880;2023-08-31T07:37:23;8.13;;;6.78;;
56269;SDS011;42176;43.240;27.880;2023-08-31T07:39:24;13.98;;;6.20;;
56269;SDS011;42176;43.240;27.880;2023-08-31T07:41:24;19.92;;;6.75;;
56269;SDS011;42176;43.240;27.880;2023-08-31T07:43:25;6.75;;;6.05;;
56269;SDS011;42176;43.240;27.880;2023-08-31T07:45:26;8.18;;;6.35;;
56269;SDS011;42176;43.240;27.880;2023-08-31T07:47:27;16.77;;;6.53;;
56269;SDS011;42176;43.240;27.880;2023-08-31T07:49:27;7.70;;;6.80;;
56269;SDS011;42176;43.240;27.880;2023-08-31T07:51:28;16.13;;;6.18;;
56269;SDS011;42176;43.240;27.880;2023-08-31T07:53:28;7.43;;;5.90;;
56269;SDS011;42176;43.240;27.880;2023-08-31T07:55:29;8.38;;;5.88;;
56269;SDS011;42176;43.240;27.880;2023-08-31T07:57:29;6.20;;;5.57;;
56269;SDS011;42176;43.240;27.880;2023-08-31T07:59:30;10.60;;;6.57;;
56269;SDS011;42176;43.240;27.880;2023-08-31T08:01:30;8.75;;;5.78;;
56269;SDS011;42176;43.240;27.880;2023-08-31T08:03:30;11.73;;;5.93;;
56269;SDS011;42176;43.240;27.880;2023-08-31T08:05:31;13.32;;;6.15;;
56269;SDS011;42176;43.240;27.880;2023-08-31T08:07:31;6.75;;;5.45;;
56269;SDS011;42176;43.240;27.880;2023-08-31T08:09:32;8.07;;;6.30;;
56269;SDS011;42176;43.240;27.880;2023-08-31T08:11:34;9.40;;;5.80;;
56269;SDS011;42176;43.240;27.880;2023-08-31T08:13:35;9.48;;;5.05;;
56269;SDS011;42176;43.240;27.880;2023-08-31T08:15:35;5.18;;;4.78;;
56269;SDS011;42176;43.240;27.880;2023-08-31T08:17:36;9.18;;;5.07;;
56269;SDS011;42176;43.240;27.880;2023-08-31T08:19:36;10.45;;;5.40;;
56269;SDS011;42176;43.240;27.880;2023-08-31T08:21:37;12.88;;;5.57;;
56269;SDS011;42176;43.240;27.880;2023-08-31T08:23:37;9.70;;;4.90;;
56269;SDS011;42176;43.240;27.880;2023-08-31T08:25:38;7.75;;;5.43;;
56269;SDS011;42176;43.240;27.880;2023-08-31T08:27:38;6.88;;;5.30;;
56269;SDS011;42176;43.240;27.880;2023-08-31T08:29:39;7.30;;;5.32;;
56269;SDS011;42176;43.240;27.880;2023-08-31T08:31:41;10.07;;;5.00;;
56269;SDS011;42176;43.240;27.880;2023-08-31T08:33:42;6.35;;;5.75;;
56269;SDS011;42176;43.240;27.880;2023-08-31T08:35:42;5.22;;;4.72;;
56269;SDS011;42176;43.240;27.880;2023-08-31T08:37:43;7.75;;;5.70;;
56269;SDS011;42176;43.240;27.880;2023-08-31T08:39:43;5.97;;;5.22;;
56269;SDS011;42176;43.240;27.880;2023-08-31T08:41:47;5.78;;;5.03;;
56269;SDS011;42176;43.240;27.880;2023-08-31T08:43:48;5.57;;;4.93;;
56269;SDS011;42176;43.240;27.880;2023-08-31T08:45:51;7.32;;;4.95;;
56269;SDS011;42176;43.240;27.880;2023-08-31T08:47:52;6.75;;;6.25;;
56269;SDS011;42176;43.240;27.880;2023-08-31T08:49:54;5.57;;;4.55;;
56269;SDS011;42176;43.240;27.880;2023-08-31T08:51:58;5.97;;;4.20;;
56269;SDS011;42176;43.240;27.880;2023-08-31T08:53:59;10.95;;;4.45;;
56269;SDS011;42176;43.240;27.880;2023-08-31T08:56:01;13.57;;;4.35;;
56269;SDS011;42176;43.240;27.880;2023-08-31T08:58:02;4.38;;;3.95;;
56269;SDS011;42176;43.240;27.880;2023-08-31T09:00:03;16.92;;;5.70;;
56269;SDS011;42176;43.240;27.880;2023-08-31T09:02:05;7.70;;;4.90;;
56269;SDS011;42176;43.240;27.880;2023-08-31T09:04:09;6.05;;;4.47;;
56269;SDS011;42176;43.240;27.880;2023-08-31T09:06:10;9.30;;;4.32;;
56269;SDS011;42176;43.240;27.880;2023-08-31T09:08:11;5.18;;;4.68;;
56269;SDS011;42176;43.240;27.880;2023-08-31T09:10:15;4.22;;;3.85;;
56269;SDS011;42176;43.240;27.880;2023-08-31T09:12:16;4.45;;;3.80;;
56269;SDS011;42176;43.240;27.880;2023-08-31T09:14:17;6.10;;;4.00;;
56269;SDS011;42176;43.240;27.880;2023-08-31T09:16:39;4.95;;;4.18;;
56269;SDS011;42176;43.240;27.880;2023-08-31T09:18:39;4.88;;;4.10;;
56269;SDS011;42176;43.240;27.880;2023-08-31T09:20:46;14.80;;;5.00;;
56269;SDS011;42176;43.240;27.880;2023-08-31T09:22:47;5.35;;;4.22;;
56269;SDS011;42176;43.240;27.880;2023-08-31T09:24:50;6.82;;;4.07;;
56269;SDS011;42176;43.240;27.880;2023-08-31T09:26:57;4.82;;;4.22;;
56269;SDS011;42176;43.240;27.880;2023-08-31T09:28:58;8.43;;;4.72;;
56269;SDS011;42176;43.240;27.880;2023-08-31T09:31:06;8.27;;;3.28;;
56269;SDS011;42176;43.240;27.880;2023-08-31T09:33:08;4.00;;;3.60;;
56269;SDS011;42176;43.240;27.880;2023-08-31T09:35:09;3.72;;;3.38;;
56269;SDS011;42176;43.240;27.880;2023-08-31T09:37:11;7.88;;;3.60;;
56269;SDS011;42176;43.240;27.880;2023-08-31T09:39:13;7.50;;;4.93;;
56269;SDS011;42176;43.240;27.880;2023-08-31T09:41:14;3.80;;;3.45;;
56269;SDS011;42176;43.240;27.880;2023-08-31T09:43:22;6.55;;;4.43;;
56269;SDS011;42176;43.240;27.880;2023-08-31T09:45:33;5.72;;;3.90;;
56269;SDS011;42176;43.240;27.880;2023-08-31T09:47:35;4.80;;;4.35;;
56269;SDS011;42176;43.240;27.880;2023-08-31T09:51:49;6.25;;;3.90;;
56269;SDS011;42176;43.240;27.880;2023-08-31T09:53:50;4.15;;;3.78;;
56269;SDS011;42176;43.240;27.880;2023-08-31T09:55:56;6.13;;;3.92;;
56269;SDS011;42176;43.240;27.880;2023-08-31T09:57:57;5.20;;;3.95;;
56269;SDS011;42176;43.240;27.880;2023-08-31T09:59:59;3.85;;;3.40;;
56269;SDS011;42176;43.240;27.880;2023-08-31T10:02:00;10.07;;;4.35;;
56269;SDS011;42176;43.240;27.880;2023-08-31T10:04:02;6.70;;;3.30;;
56269;SDS011;42176;43.240;27.880;2023-08-31T10:06:03;5.65;;;3.30;;
56269;SDS011;42176;43.240;27.880;2023-08-31T10:08:04;3.35;;;3.05;;
56269;SDS011;42176;43.240;27.880;2023-08-31T10:10:05;4.40;;;3.67;;
56269;SDS011;42176;43.240;27.880;2023-08-31T10:12:07;6.63;;;3.22;;
56269;SDS011;42176;43.240;27.880;2023-08-31T10:14:08;7.45;;;3.50;;
56269;SDS011;42176;43.240;27.880;2023-08-31T10:16:10;14.93;;;4.07;;
56269;SDS011;42176;43.240;27.880;2023-08-31T10:18:11;3.70;;;2.90;;
56269;SDS011;42176;43.240;27.880;2023-08-31T10:20:12;3.45;;;2.88;;
56269;SDS011;42176;43.240;27.880;2023-08-31T10:22:15;4.28;;;3.13;;
56269;SDS011;42176;43.240;27.880;2023-08-31T10:24:17;4.13;;;3.05;;
56269;SDS011;42176;43.240;27.880;2023-08-31T10:26:24;3.70;;;3.40;;
56269;SDS011;42176;43.240;27.880;2023-08-31T10:28:26;10.82;;;3.80;;
56269;SDS011;42176;43.240;27.880;2023-08-31T10:30:30;5.53;;;3.58;;
56269;SDS011;42176;43.240;27.880;2023-08-31T10:32:31;5.03;;;2.80;;
56269;SDS011;42176;43.240;27.880;2023-08-31T10:34:35;7.55;;;3.45;;
56269;SDS011;42176;43.240;27.880;2023-08-31T10:36:40;5.20;;;3.60;;
56269;SDS011;42176;43.240;27.880;2023-08-31T10:38:50;4.82;;;3.83;;
56269;SDS011;42176;43.240;27.880;2023-08-31T10:43:16;4.70;;;3.78;;
56269;SDS011;42176;43.240;27.880;2023-08-31T10:45:20;6.38;;;3.88;;
56269;SDS011;42176;43.240;27.880;2023-08-31T10:47:21;4.80;;;4.20;;
56269;SDS011;42176;43.240;27.880;2023-08-31T10:49:37;4.22;;;3.83;;
56269;SDS011;42176;43.240;27.880;2023-08-31T10:51:41;6.72;;;3.67;;
56269;SDS011;42176;43.240;27.880;2023-08-31T10:53:46;12.30;;;4.03;;
56269;SDS011;42176;43.240;27.880;2023-08-31T10:55:50;7.00;;;4.50;;
56269;SDS011;42176;43.240;27.880;2023-08-31T10:57:52;9.85;;;5.10;;
56269;SDS011;42176;43.240;27.880;2023-08-31T10:59:56;5.18;;;3.95;;
56269;SDS011;42176;43.240;27.880;2023-08-31T11:01:57;7.15;;;4.22;;
56269;SDS011;42176;43.240;27.880;2023-08-31T11:04:00;4.82;;;3.80;;
56269;SDS011;42176;43.240;27.880;2023-08-31T11:06:10;4.95;;;3.80;;
56269;SDS011;42176;43.240;27.880;2023-08-31T11:08:11;5.38;;;3.42;;
56269;SDS011;42176;43.240;27.880;2023-08-31T11:12:15;4.28;;;3.88;;
56269;SDS011;42176;43.240;27.880;2023-08-31T11:14:15;4.40;;;2.97;;
56269;SDS011;42176;43.240;27.880;2023-08-31T11:16:16;4.45;;;3.53;;
56269;SDS011;42176;43.240;27.880;2023-08-31T11:18:16;6.32;;;3.25;;
56269;SDS011;42176;43.240;27.880;2023-08-31T11:20:21;6.15;;;3.70;;
56269;SDS011;42176;43.240;27.880;2023-08-31T11:22:23;6.78;;;3.88;;
56269;SDS011;42176;43.240;27.880;2023-08-31T11:24:23;4.05;;;3.47;;
56269;SDS011;42176;43.240;27.880;2023-08-31T11:26:25;8.13;;;3.88;;
56269;SDS011;42176;43.240;27.880;2023-08-31T11:28:31;5.85;;;4.03;;
56269;SDS011;42176;43.240;27.880;2023-08-31T11:30:34;5.28;;;4.03;;
56269;SDS011;42176;43.240;27.880;2023-08-31T11:32:36;5.28;;;4.30;;
56269;SDS011;42176;43.240;27.880;2023-08-31T11:34:39;4.05;;;3.40;;
56269;SDS011;42176;43.240;27.880;2023-08-31T11:36:42;5.50;;;3.60;;
56269;SDS011;42176;43.240;27.880;2023-08-31T11:38:44;6.22;;;3.60;;
56269;SDS011;42176;43.240;27.880;2023-08-31T11:40:44;14.15;;;4.00;;
56269;SDS011;42176;43.240;27.880;2023-08-31T11:42:45;4.47;;;3.83;;
56269;SDS011;42176;43.240;27.880;2023-08-31T11:44:49;5.40;;;3.90;;
56269;SDS011;42176;43.240;27.880;2023-08-31T11:46:51;5.75;;;3.70;;
56269;SDS011;42176;43.240;27.880;2023-08-31T11:48:52;5.47;;;3.85;;
56269;SDS011;42176;43.240;27.880;2023-08-31T11:50:54;7.57;;;4.40;;
56269;SDS011;42176;43.240;27.880;2023-08-31T11:52:55;7.47;;;4.20;;
56269;SDS011;42176;43.240;27.880;2023-08-31T11:54:55;4.32;;;3.92;;
56269;SDS011;42176;43.240;27.880;2023-08-31T11:56:56;4.18;;;3.78;;
56269;SDS011;42176;43.240;27.880;2023-08-31T11:58:56;10.40;;;5.25;;
56269;SDS011;42176;43.240;27.880;2023-08-31T12:00:57;6.53;;;3.78;;
56269;SDS011;42176;43.240;27.880;2023-08-31T12:02:59;4.57;;;4.05;;
56269;SDS011;42176;43.240;27.880;2023-08-31T12:05:00;5.05;;;3.72;;
56269;SDS011;42176;43.240;27.880;2023-08-31T12:07:03;6.97;;;3.90;;
56269;SDS011;42176;43.240;27.880;2023-08-31T12:09:10;6.60;;;3.78;;
56269;SDS011;42176;43.240;27.880;2023-08-31T12:11:10;6.38;;;4.00;;
56269;SDS011;42176;43.240;27.880;2023-08-31T12:13:11;3.90;;;3.47;;
56269;SDS011;42176;43.240;27.880;2023-08-31T12:15:15;4.80;;;3.17;;
56269;SDS011;42176;43.240;27.880;2023-08-31T12:17:18;7.32;;;2.83;;